• Join FlightAware (Why Join?)
  • Login
  • US Flag 
08:45PM EDT


 

Airport Tracker/Info


-or-


 

Live Flight TrackerFlight Track Log ✈ DAL2369 ✈ 08-Jun-2013 ✈ KATL - KMCO

Flight Track Log - Related Links

Times and Time Zones

All times are in EDT time to prevent confusion due to time zone crossing. See the DAL2369 flight status page for this flight to view local times or setup timezone preferences in your user account.

Time Position Orientation Groundspeed Altitude Reporting Facility
EDT Latitude Longitude Course Direction KTS MPH feet Rate Location/Type
01:10PM 33.6333 -84.4667 168° South 182 209 3,200  Level Atlanta TRACON
01:11PM 33.6333 -84.5500 270° West 249 287 6,100 3,360 Climbing Atlanta TRACON
01:12PM 33.4092 -84.2667 180° South  Level FlightAware Approximate
01:12PM 33.6167 -84.6167 253° West 277 319 9,600  Level Atlanta TRACON
01:13PM 33.3026 -84.2464 168° South  Level FlightAware Approximate
01:13PM 33.5333 -84.6167 180° South 335 386 10,000  Level Atlanta TRACON
01:14PM 33.1966 -84.2199 168° South  Level FlightAware Approximate
01:14PM 33.4500 -84.5667 153° Southeast 353 406 13,400  Level Atlanta TRACON
01:15PM 33.0906 -84.1935 168° South  Level FlightAware Approximate
01:15PM 33.3500 -84.4833 145° Southeast 382 440 14,000  Level Atlanta TRACON
01:15PM 33.3197 -84.4639 152° Southeast 370 426 14,200 2,220 Climbing Atlanta Center
01:16PM 33.2322 -84.3864 143° Southeast 394 453 17,300 2,880 Climbing Atlanta Center
01:17PM 33.1386 -84.3042 144° Southeast 410 472 20,000 2,700 Climbing Atlanta Center
01:18PM 33.0406 -84.2147 143° Southeast 436 502 22,700 2,400 Climbing Atlanta Center
01:19PM 32.9322 -84.1478 153° Southeast 436 502 24,900 2,340 Climbing Atlanta Center
01:20PM 32.8111 -84.1006 162° South 441 507 27,400 2,400 Climbing Atlanta Center
01:21PM 32.6900 -84.0486 160° South 454 522 29,800 2,580 Climbing Atlanta Center
01:22PM 32.5731 -83.9994 160° South 459 528 32,600 1,560 Climbing Atlanta Center
01:23PM 32.4583 -83.9503 160° South 452 520 33,000 120 Climbing Atlanta Center
01:25PM 32.2631 -83.8728 161° South 457 526 33,000  Level Jacksonville Center
01:26PM 32.1444 -83.8225 160° South 457 526 33,000  Level Jacksonville Center
01:27PM 32.0256 -83.7747 161° South 457 526 33,000  Level Jacksonville Center
01:28PM 31.9069 -83.7272 161° South 457 526 33,000  Level Jacksonville Center
01:29PM 31.7883 -83.6797 161° South 452 520 33,000  Level Jacksonville Center
01:31PM 31.5469 -83.5361 153° Southeast 466 536 33,000  Level Jacksonville Center
01:32PM 31.4386 -83.4600 149° Southeast 461 531 33,000  Level Jacksonville Center
01:33PM 31.3306 -83.3839 149° Southeast 456 525 33,000  Level Jacksonville Center
01:34PM 31.2200 -83.3081 150° Southeast 461 531 33,000 -900 Level Jacksonville Center
01:35PM 31.1075 -83.2297 149° Southeast 461 531 31,300 -1,500 Descending Jacksonville Center
01:36PM 30.9992 -83.1519 148° Southeast 467 537 30,000 -1,320 Descending Jacksonville Center
01:37PM 30.8906 -83.0814 151° Southeast 467 537 28,700 -1,200 Descending Jacksonville Center
01:38PM 30.7967 -83.0136 148° Southeast 456 525 27,700 -900 Descending Jacksonville Center
01:39PM 30.6800 -82.9383 151° Southeast 443 510 27,000 -360 Descending Jacksonville Center
01:40PM 30.5756 -82.8683 150° Southeast 438 504 27,000  Level Jacksonville Center
01:41PM 30.4836 -82.7986 147° Southeast 438 504 27,000  Level Jacksonville Center
01:42PM 30.3769 -82.7264 150° Southeast 443 510 27,000  Level Jacksonville Center
01:43PM 30.2747 -82.6544 149° Southeast 443 510 27,000 -60 Level Jacksonville Center
01:44PM 30.1681 -82.5875 152° Southeast 443 510 26,900  Descending Jacksonville Center
01:45PM 30.0614 -82.5158 150° Southeast 437 503 27,000  Climbing Jacksonville Center
01:46PM 29.9567 -82.4467 150° Southeast 437 503 27,000  Level Jacksonville Center
01:47PM 29.8397 -82.4042 163° South 437 503 27,000 -420 Level Jacksonville Center
01:48PM 29.7164 -82.3544 161° South 437 503 26,200 -840 Descending Jacksonville Center
01:49PM 29.6178 -82.2881 150° Southeast 418 481 25,400 -1,020 Descending Jacksonville Center
01:50PM 29.5236 -82.2194 148° Southeast 407 468 24,200 -1,500 Descending Jacksonville Center
01:51PM 29.4625 -82.1175 125° Southeast 387 445 22,500 -1,860 Descending Jacksonville Center
01:52PM 29.4181 -82.0225 118° Southeast 382 440 20,500 -2,160 Descending Jacksonville Center
01:53PM 29.3506 -81.9347 131° Southeast 376 433 18,200 -2,340 Descending Jacksonville Center
01:54PM 29.2583 -81.8928 158° South 352 405 15,900 -2,460 Descending Jacksonville Center
01:55PM 29.1600 -81.8369 154° Southeast 352 405 13,300 -2,400 Descending Jacksonville Center
01:56PM 29.0719 -81.7975 159° South 347 399 11,200 -1,200 Descending Jacksonville Center
01:57PM 28.9881 -81.7650 161° South 334 384 10,900 -480 Descending Jacksonville Center
01:58PM 28.9106 -81.7303 159° South 322 371 10,300 -900 Descending Jacksonville Center
01:58PM 28.8667 -81.7000 149° Southeast 296 341 9,600 -900 Descending Orlando TRACON
01:59PM 28.8000 -81.6833 168° South 268 308 9,000 -300 Descending Orlando TRACON
02:00PM 28.7500 -81.6333 139° Southeast 212 244 9,000 -780 Level Orlando TRACON
02:01PM 28.7167 -81.5667 120° Southeast 224 258 7,500 -1,800 Descending Orlando TRACON
02:02PM 28.6833 -81.5167 127° Southeast 216 249 5,500 -1,980 Descending Orlando TRACON
02:03PM 28.6500 -81.4667 127° Southeast 207 238 3,600 -1,260 Descending Orlando TRACON
02:04PM 28.6167 -81.4167 127° Southeast 198 228 3,000 -600 Descending Orlando TRACON